createdAt,value
2019-03-26T10:10:56.303Z,102640.63
2019-03-26T10:11:19.691Z,102640.76
2019-03-26T10:11:43.071Z,102636.48
2019-03-26T10:12:06.593Z,102639.29
2019-03-26T10:12:29.975Z,102644.50
2019-03-26T10:12:53.397Z,102644.81
2019-03-26T10:13:16.878Z,102639.45
2019-03-26T10:13:40.300Z,102650.73
2019-03-26T10:14:03.715Z,102650.92
2019-03-26T10:14:27.253Z,102643.09
2019-03-26T10:14:50.643Z,102643.48
2019-03-26T10:15:14.043Z,102645.77
2019-03-26T10:15:37.417Z,102639.61
2019-03-26T10:16:00.813Z,102636.98
2019-03-26T10:16:24.179Z,102637.03
2019-03-26T10:19:17.871Z,102633.68
2019-03-26T10:21:51.305Z,102637.16
2019-03-26T10:24:24.758Z,102635.44
2019-03-26T10:26:58.123Z,102630.92
2019-03-26T10:29:31.533Z,102641.69
2019-03-26T10:32:04.937Z,102632.61
2019-03-26T10:34:38.348Z,102626.80
2019-03-26T10:37:11.752Z,102627.20
2019-03-26T10:39:45.158Z,102627.20
2019-03-26T10:42:18.561Z,102624.72
2019-03-26T10:44:51.994Z,102625.59
2019-03-26T10:47:25.375Z,102630.13
2019-03-26T10:49:58.794Z,102621.45
2019-03-26T10:52:34.327Z,102624.45
2019-03-26T10:55:07.312Z,102624.45
2019-03-26T10:57:40.698Z,102621.20
2019-03-26T11:00:14.180Z,102621.41
2019-03-26T11:02:47.582Z,102614.61
2019-03-26T11:05:21.012Z,102616.05
2019-03-26T11:07:54.416Z,102606.41
2019-03-26T11:10:27.840Z,102607.41
2019-03-26T11:13:01.244Z,102595.08
2019-03-26T11:15:34.672Z,102590.16
2019-03-26T11:18:08.135Z,102592.24
2019-03-26T11:20:41.556Z,102588.59
2019-03-26T11:23:14.944Z,102586.24
2019-03-26T11:25:48.350Z,102585.02
2019-03-26T11:28:21.750Z,102587.38
2019-03-26T11:30:55.172Z,102577.94
2019-03-26T11:33:28.553Z,102580.61
2019-03-26T11:36:01.969Z,102578.38
2019-03-26T11:38:35.358Z,102587.89
2019-03-26T11:41:08.804Z,102587.89
2019-03-26T11:43:42.200Z,102584.91
2019-03-26T11:46:15.617Z,102593.91
2019-03-26T11:48:49.033Z,102593.91
2019-03-26T11:51:22.457Z,102590.63
2019-03-26T11:53:55.843Z,102598.04
2019-03-26T11:56:29.276Z,102594.75
2019-03-26T11:59:02.679Z,102596.56
2019-03-26T12:01:36.104Z,102596.00
2019-03-26T12:04:09.506Z,102596.83
2019-03-26T12:06:42.915Z,102598.00
2019-03-26T12:09:16.325Z,102603.92
2019-03-26T12:11:49.761Z,102603.16
2019-03-26T12:14:23.162Z,102601.31
2019-03-26T12:16:56.579Z,102601.31
2019-03-26T12:19:29.994Z,102606.48
2019-03-26T12:22:03.406Z,102607.28
2019-03-26T12:24:36.889Z,102607.28
2019-03-26T12:27:10.315Z,102615.05
2019-03-26T12:29:43.678Z,102608.15
2019-03-26T12:32:17.111Z,102597.54
2019-03-26T12:34:50.593Z,102601.19
2019-03-26T12:38:23.149Z,102582.09
2019-03-26T12:40:56.531Z,102589.00
2019-03-26T12:43:29.965Z,102603.78
2019-03-26T12:46:03.351Z,102610.60
2019-03-26T12:48:36.742Z,102610.60
2019-03-26T12:51:10.129Z,102611.02
2019-03-26T12:53:43.534Z,102613.70
2019-03-26T12:56:16.915Z,102608.34
2019-03-26T12:58:50.348Z,102607.13
2019-03-26T13:01:23.736Z,102614.38
2019-03-26T13:03:57.217Z,102625.28
2019-03-26T13:06:30.610Z,102610.79
2019-03-26T13:09:05.624Z,102610.79
2019-03-26T13:11:38.996Z,102618.92
2019-03-26T13:14:12.449Z,102612.69
2019-03-26T13:16:45.853Z,102612.69
2019-03-26T13:19:19.257Z,102613.93
2019-03-26T13:21:52.669Z,102613.90
2019-03-26T13:24:26.051Z,102613.90
2019-03-26T13:26:59.445Z,102610.92
2019-03-26T13:29:32.839Z,102614.90
2019-03-26T13:32:06.323Z,102613.50
2019-03-26T13:34:39.720Z,102611.62
2019-03-26T13:37:13.106Z,102610.99
2019-03-26T13:39:46.537Z,102610.99
2019-03-26T13:42:19.938Z,102614.06
2019-03-26T13:44:53.331Z,102609.89
2019-03-26T13:47:26.719Z,102622.41
2019-03-26T13:50:00.359Z,102618.95
2019-03-26T13:52:33.860Z,102623.81
2019-03-26T13:55:08.408Z,102622.25
2019-03-26T13:57:41.800Z,102625.77
2019-03-26T14:00:17.793Z,102619.08
2019-03-26T14:02:51.185Z,102621.87
2019-03-26T14:05:25.754Z,102619.25
2019-03-26T14:07:59.152Z,102616.32
2019-03-26T14:10:40.680Z,102616.86
2019-03-26T14:13:07.712Z,102616.86
2019-03-26T14:15:41.127Z,102605.72
2019-03-26T14:18:14.526Z,102607.93
2019-03-26T14:20:47.949Z,102610.30
2019-03-26T14:23:21.365Z,102610.30
2019-03-26T14:25:54.749Z,102614.84
2019-03-26T14:28:28.335Z,102604.91
2019-03-26T14:31:01.730Z,102607.60
2019-03-26T14:33:35.136Z,102607.60
2019-03-26T14:36:08.575Z,102607.99
2019-03-26T14:38:41.977Z,102594.78
2019-03-26T14:41:15.383Z,102602.72
2019-03-26T14:43:48.833Z,102603.40
2019-03-26T14:46:22.229Z,102603.40
2019-03-26T14:48:55.628Z,102607.44
2019-03-26T14:51:29.070Z,102607.44
2019-03-26T14:54:02.482Z,102612.06
2019-03-26T14:56:35.875Z,102608.05
2019-03-26T14:59:09.307Z,102604.78
2019-03-26T15:01:42.720Z,102604.78
2019-03-26T15:04:16.188Z,102613.47
2019-03-26T15:06:49.618Z,102609.83
2019-03-26T15:09:23.013Z,102629.44
2019-03-26T15:11:56.429Z,102629.44
2019-03-26T15:14:29.860Z,102622.72
2019-03-26T15:17:03.292Z,102616.09
2019-03-26T15:19:36.696Z,102616.09
2019-03-26T15:22:10.123Z,102623.08
2019-03-26T15:24:43.526Z,102619.30
2019-03-26T15:27:16.917Z,102619.95
2019-03-26T15:29:50.392Z,102616.47
2019-03-26T15:32:23.916Z,102626.67
2019-03-26T15:34:57.306Z,102626.67
2019-03-26T15:37:30.748Z,102626.00
2019-03-26T15:40:06.276Z,102626.00
2019-03-26T15:42:39.704Z,102622.09
2019-03-26T15:45:13.612Z,102632.81
2019-03-26T15:47:47.072Z,102628.78
2019-03-26T15:50:23.727Z,102633.28
2019-03-26T15:52:57.156Z,102625.31
2019-03-26T15:55:30.559Z,102620.52
2019-03-26T15:58:03.995Z,102636.53
2019-03-26T16:00:37.343Z,102636.53
2019-03-26T16:03:10.750Z,102628.02
2019-03-26T16:05:44.187Z,102634.70
2019-03-26T16:08:17.586Z,102634.70
2019-03-26T16:10:51.095Z,102623.77
2019-03-26T16:13:24.506Z,102624.66
2019-03-26T16:15:57.899Z,102624.66
2019-03-26T16:18:31.338Z,102627.91
2019-03-26T16:21:04.808Z,102627.91
2019-03-26T16:23:38.204Z,102618.12
2019-03-26T16:26:11.649Z,102624.09
2019-03-26T16:28:45.203Z,102624.55
2019-03-26T16:31:18.662Z,102624.55
2019-03-26T16:33:52.056Z,102619.79
2019-03-26T16:36:25.553Z,102619.79
2019-03-26T16:38:58.949Z,102627.92
2019-03-26T16:41:32.367Z,102627.92
2019-03-26T16:44:05.763Z,102626.05
2019-03-26T16:46:39.172Z,102626.05
2019-03-26T16:49:12.989Z,102625.98
2019-03-26T16:51:46.407Z,102633.03
2019-03-26T16:54:19.795Z,102633.03
2019-03-26T16:56:53.221Z,102628.48
2019-03-26T16:59:26.679Z,102628.48
2019-03-26T17:02:00.097Z,102628.58
2019-03-26T17:04:33.487Z,102628.58
2019-03-26T17:07:06.929Z,102638.48
2019-03-26T17:09:40.415Z,102635.70
2019-03-26T17:12:13.812Z,102635.70
2019-03-26T17:14:47.243Z,102636.87
2019-03-26T17:17:20.633Z,102635.91
2019-03-26T17:19:54.080Z,102623.92
2019-03-26T17:22:27.486Z,102632.63
2019-03-26T17:25:00.902Z,102637.42
2019-03-26T17:27:34.318Z,102638.61
2019-03-26T17:30:07.809Z,102635.94
2019-03-26T17:32:41.234Z,102638.80
2019-03-26T17:35:14.675Z,102640.02
2019-03-26T17:37:59.035Z,102639.88
2019-03-26T17:40:23.224Z,102646.25
2019-03-26T17:42:56.817Z,102646.25
2019-03-26T17:45:30.252Z,102644.34
2019-03-26T17:48:03.648Z,102635.00
2019-03-26T17:50:37.064Z,102644.39
2019-03-26T17:53:10.527Z,102644.18
2019-03-26T17:55:43.967Z,102644.18
2019-03-26T17:58:17.451Z,102645.22
2019-03-26T18:00:50.887Z,102650.14
2019-03-26T18:03:26.654Z,102651.08
2019-03-26T18:05:59.521Z,102656.73
2019-03-26T18:08:32.913Z,102663.42
2019-03-26T18:11:06.472Z,102644.94
2019-03-26T18:13:39.970Z,102644.94
2019-03-26T18:16:13.453Z,102679.80
2019-03-26T18:18:46.875Z,102683.38
2019-03-26T18:21:20.323Z,102686.30
2019-03-26T18:23:53.740Z,102697.55
2019-03-26T18:26:27.183Z,102695.67
2019-03-26T18:29:00.585Z,102695.67
2019-03-26T18:31:34.030Z,102697.80
2019-03-26T18:34:07.447Z,102710.77
2019-03-26T18:36:41.025Z,102710.77
2019-03-26T18:39:14.443Z,102707.98
2019-03-26T18:41:47.852Z,102720.09
2019-03-26T18:44:21.376Z,102719.28
2019-03-26T18:46:54.946Z,102726.25
2019-03-26T18:49:28.409Z,102726.25
2019-03-26T18:52:01.832Z,102730.64
2019-03-26T18:54:35.337Z,102735.01
2019-03-26T18:57:08.749Z,102734.02
2019-03-26T18:59:42.154Z,102734.02
2019-03-26T19:02:15.583Z,102735.78
2019-03-26T19:04:48.952Z,102738.86
2019-03-26T19:07:22.498Z,102742.69
2019-03-26T19:09:55.890Z,102742.69
2019-03-26T19:12:29.403Z,102737.48
2019-03-26T19:15:02.885Z,102737.48
2019-03-26T19:17:36.285Z,102728.52
2019-03-26T19:20:09.771Z,102730.70
2019-03-26T19:22:43.266Z,102730.70
2019-03-26T19:25:16.653Z,102734.31
2019-03-26T19:27:50.149Z,102732.71
2019-03-26T19:30:23.575Z,102732.71
2019-03-26T19:32:57.836Z,102735.63
2019-03-26T19:35:31.359Z,102735.63
2019-03-26T19:38:04.801Z,102741.06
2019-03-26T19:40:38.200Z,102740.20
2019-03-26T19:43:11.918Z,102736.19
2019-03-26T19:45:45.482Z,102729.70
2019-03-26T19:48:18.896Z,102733.92
2019-03-26T19:50:52.318Z,102736.30
2019-03-26T19:53:25.751Z,102742.98
2019-03-26T19:55:59.335Z,102742.98
2019-03-26T19:58:32.853Z,102743.39
2019-03-26T20:01:06.323Z,102748.81
2019-03-26T20:03:39.739Z,102748.06
2019-03-26T20:06:14.089Z,102757.00
2019-03-26T20:08:47.621Z,102760.05
2019-03-26T20:11:21.259Z,102761.38
2019-03-26T20:13:54.671Z,102761.38
2019-03-26T20:16:41.045Z,102761.53
2019-03-26T20:19:03.316Z,102765.35
2019-03-26T20:21:36.820Z,102772.83
2019-03-26T20:24:10.265Z,102772.83
2019-03-26T20:26:43.792Z,102765.60
2019-03-26T20:29:17.193Z,102765.60
2019-03-26T20:31:50.698Z,102777.85
2019-03-26T20:34:24.179Z,102775.17
2019-03-26T20:36:57.691Z,102779.28
2019-03-26T20:39:31.275Z,102778.33
2019-03-26T20:42:04.759Z,102778.33
2019-03-26T20:44:38.361Z,102783.70
2019-03-26T20:47:12.987Z,102782.89
2019-03-26T20:49:46.527Z,102781.88
2019-03-26T20:52:19.941Z,102797.89
2019-03-26T20:54:53.503Z,102797.89
2019-03-26T20:57:27.035Z,102793.09
2019-03-26T21:00:00.537Z,102793.33
2019-03-26T21:02:34.155Z,102796.63
2019-03-26T21:05:08.329Z,102797.38
2019-03-26T21:07:41.859Z,102779.67
2019-03-26T21:10:15.355Z,102779.67
2019-03-26T21:12:48.906Z,102799.77
2019-03-26T21:15:22.412Z,102794.46
2019-03-26T21:17:55.964Z,102799.33
2019-03-26T21:20:29.499Z,102799.33
2019-03-26T21:23:03.483Z,102787.48
2019-03-26T21:25:36.904Z,102781.94
2019-03-26T21:28:10.453Z,102781.94
2019-03-26T21:30:44.075Z,102780.56
2019-03-26T21:33:17.637Z,102780.56
2019-03-26T21:35:51.622Z,102792.16
2019-03-26T21:38:25.240Z,102788.87
2019-03-26T21:40:58.872Z,102788.87
2019-03-26T21:43:32.386Z,102782.78
2019-03-26T21:46:05.983Z,102784.25
2019-03-26T21:48:39.551Z,102786.23
2019-03-26T21:51:13.243Z,102786.23
2019-03-26T21:53:46.766Z,102790.54
2019-03-26T21:56:20.272Z,102790.07
2019-03-26T21:58:53.842Z,102790.07
2019-03-26T22:01:27.404Z,102801.91
2019-03-26T22:04:00.966Z,102799.48
2019-03-26T22:06:34.750Z,102806.44
2019-03-26T22:09:08.371Z,102809.20
2019-03-26T22:11:49.641Z,102806.36
2019-03-26T22:14:18.253Z,102806.36
2019-03-26T22:16:52.087Z,102805.02
2019-03-26T22:19:28.692Z,102806.05
2019-03-26T22:22:00.789Z,102812.63
2019-03-26T22:24:34.311Z,102812.63
2019-03-26T22:27:07.956Z,102812.86
2019-03-26T22:29:46.434Z,102817.17
2019-03-26T22:32:19.886Z,102813.34
2019-03-26T22:34:53.360Z,102809.31
2019-03-26T22:37:26.759Z,102809.31
2019-03-26T22:40:03.766Z,102818.90
2019-03-26T22:42:37.176Z,102815.05
2019-03-26T22:45:10.924Z,102813.80
2019-03-26T22:47:46.103Z,102813.80
2019-03-26T22:50:19.559Z,102820.05
2019-03-26T22:52:52.980Z,102820.05
2019-03-26T22:55:26.417Z,102822.84
2019-03-26T22:57:59.911Z,102819.80
2019-03-26T23:00:34.959Z,102819.80
2019-03-26T23:03:08.445Z,102818.61
2019-03-26T23:05:43.507Z,102825.83
2019-03-26T23:08:17.044Z,102829.41
2019-03-26T23:10:50.445Z,102809.78
2019-03-26T23:13:23.919Z,102832.72
2019-03-26T23:15:57.533Z,102828.98
2019-03-26T23:18:30.950Z,102828.98
2019-03-26T23:21:04.389Z,102841.70
2019-03-26T23:23:37.873Z,102836.91
2019-03-26T23:26:11.370Z,102838.05
2019-03-26T23:28:44.905Z,102835.86
2019-03-26T23:31:18.387Z,102835.86
2019-03-26T23:33:51.887Z,102843.83
2019-03-26T23:36:25.320Z,102843.83
2019-03-26T23:38:58.715Z,102834.47
2019-03-26T23:41:32.147Z,102834.47
2019-03-26T23:44:05.633Z,102834.55
2019-03-26T23:46:39.079Z,102834.55
2019-03-26T23:49:12.468Z,102835.21
2019-03-26T23:51:45.866Z,102840.67
2019-03-26T23:54:19.288Z,102835.42
2019-03-26T23:56:52.705Z,102831.95
2019-03-26T23:59:26.132Z,102835.66
